Time;durP1;ratioP1;P1;durP2;ratioP2;P2;SDS_P1;SDS_P2;PMS_P1;PMS_P2;Temp;Humidity;BMP_temperature;BMP_pressure;BME280_temperature;BME280_humidity;BME280_pressure;Samples;Min_cycle;Max_cycle;Signal;HPM_P1;HPM_P2
2022/01/12 00:00:38;;;;;;;23.97;10.20;;;;;0.10;97903.00;;;;8447515;28;20317;-72
2022/01/12 00:04:41;;;;;;;20.10;9.87;;;;;0.10;97907.00;;;;8447963;28;20222;-71
2022/01/12 00:08:47;;;;;;;23.20;9.97;;;;;0.00;97903.00;;;;8426259;27;20211;-71
2022/01/12 00:12:50;;;;;;;22.23;10.53;;;;;0.00;97910.00;;;;8430574;27;20309;-71
2022/01/12 00:16:58;;;;;;;19.23;10.10;;;;;0.00;97893.00;;;;8443834;28;20214;-71
2022/01/12 00:21:02;;;;;;;20.33;10.03;;;;;0.00;97900.00;;;;8447508;28;20215;-71
2022/01/12 00:25:25;;;;;;;19.60;9.27;;;;;0.00;97897.00;;;;8447394;28;20246;-69
2022/01/12 00:33:48;;;;;;;23.90;10.53;;;;;-0.20;97894.00;;;;8449779;27;20270;-71
2022/01/12 00:37:52;;;;;;;17.80;9.00;;;;;-0.20;97898.00;;;;8453967;28;20238;-69
2022/01/12 00:41:56;;;;;;;21.73;10.20;;;;;-0.20;97893.00;;;;8454513;27;20261;-70
2022/01/12 00:46:00;;;;;;;23.07;11.57;;;;;-0.20;97896.00;;;;8454243;27;20310;-69
2022/01/12 00:50:04;;;;;;;20.03;9.90;;;;;-0.20;97899.00;;;;8452766;27;20242;-70
2022/01/12 00:54:08;;;;;;;23.03;10.93;;;;;-0.20;97894.00;;;;8453530;27;20759;-70
2022/01/12 00:58:12;;;;;;;21.37;10.17;;;;;-0.30;97888.00;;;;8446585;27;20750;-70
2022/01/12 01:02:15;;;;;;;18.43;8.80;;;;;-0.20;97894.00;;;;8453463;27;20691;-70
2022/01/12 01:06:19;;;;;;;18.93;9.20;;;;;-0.10;97892.00;;;;8448223;27;20305;-70
2022/01/12 01:10:31;;;;;;;17.97;9.97;;;;;-0.20;97896.00;;;;8419579;28;20912;-69
2022/01/12 01:14:46;;;;;;;20.73;9.63;;;;;-0.20;97909.00;;;;8441594;27;20314;-69
2022/01/12 01:27:31;;;;;;;17.67;8.37;;;;;-0.40;97931.00;;;;8452983;27;20595;-69
2022/01/12 01:31:36;;;;;;;21.50;10.00;;;;;-0.30;97935.00;;;;8449231;27;20305;-69
2022/01/12 01:35:41;;;;;;;18.87;9.20;;;;;-0.40;97939.00;;;;8418689;27;20831;-70
2022/01/12 01:39:46;;;;;;;22.20;10.53;;;;;-0.40;97937.00;;;;8418009;28;20262;-69
2022/01/12 01:44:09;;;;;;;20.63;10.00;;;;;-0.40;97942.00;;;;8441182;27;20258;-68
2022/01/12 01:56:55;;;;;;;21.90;10.07;;;;;-0.50;97936.00;;;;8423808;28;20232;-69
2022/01/12 02:00:59;;;;;;;21.33;9.57;;;;;-0.50;97936.00;;;;8452736;27;20301;-68
2022/01/12 02:05:05;;;;;;;21.07;10.13;;;;;-0.40;97938.00;;;;8447974;28;20229;-69
2022/01/12 02:09:08;;;;;;;26.30;11.77;;;;;-0.50;97936.00;;;;8447868;27;20690;-68
2022/01/12 02:13:11;;;;;;;22.20;10.20;;;;;-0.60;97939.00;;;;8448982;27;20253;-68
2022/01/12 02:17:20;;;;;;;25.10;11.47;;;;;-0.70;97945.00;;;;8452158;27;20301;-68
2022/01/12 02:43:15;;;;;;;24.03;11.30;;;;;-1.00;97957.00;;;;8416606;28;20291;-67
2022/01/12 02:55:59;;;;;;;22.07;10.83;;;;;-1.00;97954.00;;;;8444266;27;20310;-68
2022/01/12 03:00:07;;;;;;;25.37;10.83;;;;;-1.00;97946.00;;;;8416743;28;20247;-68
2022/01/12 03:04:11;;;;;;;27.70;11.87;;;;;-1.00;97950.00;;;;8367983;22;20747;-68
2022/01/12 03:08:19;;;;;;;29.73;13.43;;;;;-1.00;97947.00;;;;8307027;28;20665;-68
2022/01/12 03:12:24;;;;;;;29.97;12.40;;;;;-1.00;97956.00;;;;8310735;28;20313;-68
2022/01/12 03:16:29;;;;;;;25.67;11.80;;;;;-0.90;97953.00;;;;8327988;28;20243;-67
2022/01/12 03:20:32;;;;;;;24.37;11.50;;;;;-1.00;97954.00;;;;8333063;28;20247;-68
2022/01/12 03:24:35;;;;;;;25.17;11.07;;;;;-1.00;97955.00;;;;8339726;28;20312;-70
2022/01/12 03:28:41;;;;;;;28.60;12.83;;;;;-1.00;97951.00;;;;8327947;28;20745;-68
2022/01/12 03:32:49;;;;;;;21.97;11.17;;;;;-1.00;97954.00;;;;8337545;28;20360;-68
2022/01/12 03:37:16;;;;;;;26.03;11.10;;;;;-1.00;97953.00;;;;8328934;28;20237;-69
2022/01/12 03:41:19;;;;;;;30.97;12.27;;;;;-0.90;97953.00;;;;8329373;28;20304;-68
2022/01/12 03:45:29;;;;;;;24.63;11.50;;;;;-0.80;97946.00;;;;8338428;28;20232;-68
2022/01/12 03:49:32;;;;;;;23.30;10.97;;;;;-0.80;97950.00;;;;8345859;28;20224;-69
2022/01/12 03:53:35;;;;;;;27.57;11.03;;;;;-0.90;97946.00;;;;8331492;28;20255;-68
2022/01/12 03:57:38;;;;;;;22.43;10.10;;;;;-0.90;97948.00;;;;8338192;28;20255;-68
2022/01/12 04:01:43;;;;;;;21.13;10.37;;;;;-0.90;97961.00;;;;8320026;28;20998;-68
2022/01/12 04:10:07;;;;;;;26.27;11.27;;;;;-0.90;97964.00;;;;8281507;28;20242;-71
2022/01/12 04:14:15;;;;;;;26.37;11.83;;;;;-1.00;97960.00;;;;8280781;28;20654;-71
2022/01/12 04:18:19;;;;;;;19.63;10.07;;;;;-1.00;97951.00;;;;8269311;28;20305;-70
2022/01/12 04:26:43;;;;;;;22.67;10.70;;;;;-1.00;97950.00;;;;8274915;28;20265;-71
2022/01/12 04:30:47;;;;;;;24.43;11.63;;;;;-1.00;97955.00;;;;8272060;28;20829;-69
2022/01/12 04:34:52;;;;;;;21.20;10.47;;;;;-1.00;97969.00;;;;8279895;28;20233;-70
2022/01/12 04:38:55;;;;;;;27.33;12.17;;;;;-1.00;97973.00;;;;8276308;28;20682;-70
2022/01/12 04:42:59;;;;;;;26.67;11.73;;;;;-1.00;97973.00;;;;8289259;28;20282;-70
2022/01/12 04:47:07;;;;;;;22.97;11.20;;;;;-1.00;97975.00;;;;8324570;28;20238;-71
2022/01/12 04:51:12;;;;;;;27.07;12.07;;;;;-1.00;97971.00;;;;8280150;28;20242;-72
2022/01/12 04:55:15;;;;;;;26.57;11.90;;;;;-1.10;97982.00;;;;8280198;28;20309;-71
2022/01/12 04:59:18;;;;;;;21.73;11.10;;;;;-1.10;97984.00;;;;8262485;28;20302;-73
2022/01/12 05:07:57;;;;;;;23.57;11.40;;;;;-1.10;97982.00;;;;8298274;28;20782;-72
2022/01/12 05:16:22;;;;;;;25.67;12.03;;;;;-1.10;97967.00;;;;8310422;28;20228;-74
2022/01/12 05:20:25;;;;;;;26.43;12.47;;;;;-1.20;97965.00;;;;8317381;28;20256;-74
2022/01/12 05:24:30;;;;;;;28.23;13.00;;;;;-1.20;97975.00;;;;8313223;28;20237;-72
2022/01/12 05:28:53;;;;;;;29.87;12.63;;;;;-1.20;97986.00;;;;8306109;28;20235;-72
2022/01/12 05:32:57;;;;;;;25.90;13.00;;;;;-1.20;97998.00;;;;8313769;28;20814;-72
2022/01/12 05:37:00;;;;;;;25.80;12.90;;;;;-1.20;97990.00;;;;8313899;28;20693;-73
2022/01/12 05:41:09;;;;;;;28.00;13.17;;;;;-1.20;97993.00;;;;8310952;28;20632;-73
2022/01/12 05:45:13;;;;;;;29.70;12.60;;;;;-1.20;97994.00;;;;8300939;28;20233;-73
2022/01/12 05:49:35;;;;;;;29.17;12.87;;;;;-1.10;97995.00;;;;8312394;28;20309;-73
2022/01/12 05:53:38;;;;;;;29.17;13.87;;;;;-1.10;98002.00;;;;8316146;28;20577;-73
2022/01/12 05:57:43;;;;;;;26.73;12.70;;;;;-1.20;98009.00;;;;8312291;28;20305;-73
2022/01/12 06:01:46;;;;;;;28.77;11.83;;;;;-1.20;98003.00;;;;8270329;28;20308;-72
2022/01/12 06:05:50;;;;;;;23.60;11.70;;;;;-1.20;98027.00;;;;8284223;28;20230;-73
2022/01/12 06:09:53;;;;;;;29.03;14.20;;;;;-1.30;98036.00;;;;8269002;28;20301;-72
2022/01/12 06:13:59;;;;;;;24.97;12.57;;;;;-1.10;98034.00;;;;8279382;28;20257;-73
2022/01/12 06:18:02;;;;;;;21.90;10.57;;;;;-1.00;98035.00;;;;8280791;28;20234;-74
2022/01/12 06:22:05;;;;;;;25.27;11.07;;;;;-1.00;98034.00;;;;8273991;28;20305;-73
2022/01/12 06:26:09;;;;;;;21.97;11.23;;;;;-0.90;98040.00;;;;8269556;28;20226;-73
2022/01/12 06:31:10;;;;;;;24.20;11.57;;;;;-0.90;98042.00;;;;8272920;28;20337;-73
2022/01/12 06:34:39;;;;;;;27.50;12.27;;;;;-0.80;98055.00;;;;8300692;28;20903;-74
2022/01/12 06:38:42;;;;;;;26.43;12.17;;;;;-1.00;98064.00;;;;8315831;28;20252;-74
2022/01/12 06:42:46;;;;;;;24.30;12.00;;;;;-1.10;98067.00;;;;8307279;28;20245;-75
2022/01/12 06:46:52;;;;;;;26.63;12.90;;;;;-1.10;98071.00;;;;8300374;28;20255;-75
2022/01/12 06:50:55;;;;;;;25.97;11.90;;;;;-1.30;98087.00;;;;8313173;28;20275;-75
2022/01/12 06:55:00;;;;;;;24.60;11.67;;;;;-1.30;98084.00;;;;8306978;28;20244;-75
2022/01/12 06:59:04;;;;;;;25.50;11.77;;;;;-1.40;98079.00;;;;8272710;28;20333;-76
2022/01/12 07:03:13;;;;;;;22.83;11.27;;;;;-1.30;98087.00;;;;8264498;28;21554;-77
2022/01/12 07:07:16;;;;;;;25.43;13.33;;;;;-1.40;98100.00;;;;8274245;28;20341;-75
2022/01/12 07:11:20;;;;;;;25.90;12.80;;;;;-1.40;98095.00;;;;8285093;28;20309;-77
2022/01/12 07:15:23;;;;;;;25.50;11.50;;;;;-1.30;98091.00;;;;8278541;28;20674;-77
2022/01/12 07:19:27;;;;;;;32.57;15.67;;;;;-1.30;98091.00;;;;8280723;28;20251;-78
2022/01/12 07:23:31;;;;;;;25.23;12.30;;;;;-1.20;98094.00;;;;8277438;28;20253;-76
2022/01/12 07:27:34;;;;;;;28.53;12.97;;;;;-1.20;98096.00;;;;8278924;28;20351;-77
2022/01/12 07:31:37;;;;;;;25.50;12.17;;;;;-1.10;98106.00;;;;8269083;28;20322;-74
2022/01/12 07:35:43;;;;;;;23.93;11.73;;;;;-1.10;98112.00;;;;8278918;28;20268;-78
2022/01/12 07:39:46;;;;;;;25.70;11.80;;;;;-1.10;98121.00;;;;8273886;28;20304;-77
2022/01/12 07:43:49;;;;;;;26.70;11.50;;;;;-1.10;98123.00;;;;8275520;28;20250;-78
2022/01/12 07:47:53;;;;;;;26.30;11.90;;;;;-1.10;98127.00;;;;8309246;28;20238;-80
2022/01/12 07:52:00;;;;;;;21.07;10.87;;;;;-1.00;98150.00;;;;8308367;28;20274;-78
2022/01/12 07:56:03;;;;;;;28.57;12.63;;;;;-1.00;98151.00;;;;8305529;28;20259;-80
2022/01/12 08:00:08;;;;;;;25.17;11.33;;;;;-0.80;98143.00;;;;8301592;28;20244;-80
2022/01/12 08:04:11;;;;;;;23.03;10.93;;;;;-0.70;98145.00;;;;8299752;28;20312;-79
2022/01/12 08:08:16;;;;;;;22.63;10.77;;;;;-0.70;98145.00;;;;8308400;28;20221;-79
2022/01/12 08:12:19;;;;;;;24.17;10.93;;;;;-0.70;98160.00;;;;8306052;28;20320;-75
2022/01/12 08:16:22;;;;;;;25.13;12.07;;;;;-0.70;98153.00;;;;8281745;28;20999;-73
2022/01/12 08:20:28;;;;;;;23.60;11.30;;;;;-0.60;98174.00;;;;8277287;28;20229;-75
2022/01/12 08:24:33;;;;;;;26.10;12.10;;;;;-0.50;98182.00;;;;8275378;28;20961;-74
2022/01/12 08:28:41;;;;;;;25.10;11.70;;;;;-0.40;98174.00;;;;8300593;28;20279;-73
2022/01/12 08:32:45;;;;;;;24.80;11.57;;;;;-0.40;98184.00;;;;8297804;28;21402;-73
2022/01/12 08:36:48;;;;;;;21.03;10.80;;;;;-0.30;98180.00;;;;8307680;28;20323;-75
2022/01/12 08:40:53;;;;;;;22.13;10.27;;;;;-0.30;98195.00;;;;8306630;28;20256;-75
2022/01/12 08:44:59;;;;;;;22.57;9.83;;;;;-0.20;98202.00;;;;8267551;28;20857;-78
2022/01/12 08:49:03;;;;;;;22.27;9.80;;;;;0.00;98195.00;;;;8270594;28;20225;-75
2022/01/12 08:53:06;;;;;;;23.07;9.80;;;;;0.20;98170.00;;;;8291058;28;20272;-76
2022/01/12 08:57:11;;;;;;;22.73;10.83;;;;;0.40;98163.00;;;;8299386;28;20305;-78
2022/01/12 09:01:15;;;;;;;19.27;9.90;;;;;0.70;98186.00;;;;8271774;28;20225;-79
2022/01/12 09:05:18;;;;;;;19.63;10.17;;;;;0.60;98186.00;;;;8313514;28;20229;-79
2022/01/12 09:09:22;;;;;;;19.67;9.47;;;;;0.50;98183.00;;;;8307180;28;21203;-77
2022/01/12 09:13:27;;;;;;;21.43;9.73;;;;;0.60;98176.00;;;;8276338;28;20729;-79
2022/01/12 09:17:31;;;;;;;19.60;10.20;;;;;0.60;98181.00;;;;8287312;28;20232;-77
2022/01/12 09:21:37;;;;;;;21.90;10.83;;;;;0.80;98180.00;;;;8282681;28;20219;-79
2022/01/12 09:25:41;;;;;;;18.63;10.13;;;;;0.90;98200.00;;;;8280320;28;20249;-78
2022/01/12 09:29:47;;;;;;;18.67;9.57;;;;;0.80;98209.00;;;;8312935;28;20234;-80
2022/01/12 09:33:50;;;;;;;15.20;9.23;;;;;0.60;98188.00;;;;8307621;28;20245;-82
2022/01/12 09:37:54;;;;;;;18.73;8.77;;;;;0.70;98184.00;;;;8283481;28;20230;-80
2022/01/12 09:41:57;;;;;;;17.10;8.73;;;;;1.00;98182.00;;;;8279904;28;20232;-79
2022/01/12 09:46:04;;;;;;;19.37;9.13;;;;;1.20;98203.00;;;;8272094;28;20588;-81
2022/01/12 09:50:09;;;;;;;16.17;8.97;;;;;1.30;98204.00;;;;8282657;28;20234;-80
2022/01/12 09:54:12;;;;;;;19.73;9.53;;;;;1.50;98194.00;;;;8279212;28;20249;-78
2022/01/12 09:58:16;;;;;;;17.97;9.43;;;;;1.70;98184.00;;;;8278645;28;20321;-79
2022/01/12 10:02:22;;;;;;;17.57;9.10;;;;;1.80;98185.00;;;;8272929;28;20270;-80
2022/01/12 10:06:26;;;;;;;16.43;8.37;;;;;1.80;98185.00;;;;8271341;28;20309;-80
2022/01/12 10:10:30;;;;;;;19.33;9.40;;;;;1.60;98189.00;;;;8279041;28;20592;-75
2022/01/12 10:14:45;;;;;;;18.90;9.80;;;;;1.80;98186.00;;;;8273972;28;21168;-81
2022/01/12 10:18:52;;;;;;;20.50;9.67;;;;;2.00;98196.00;;;;8273941;28;20263;-79
2022/01/12 10:23:01;;;;;;;18.33;9.10;;;;;2.10;98213.00;;;;8277020;28;20326;-73
2022/01/12 10:27:13;;;;;;;17.27;9.63;;;;;2.00;98212.00;;;;8277559;28;20259;-74
2022/01/12 10:31:18;;;;;;;22.13;10.90;;;;;1.90;98210.00;;;;8279618;28;20302;-74
2022/01/12 10:35:27;;;;;;;18.07;9.80;;;;;1.40;98200.00;;;;8267684;28;20224;-73
2022/01/12 10:39:30;;;;;;;19.47;10.00;;;;;1.40;98206.00;;;;8282714;28;20266;-74
2022/01/12 10:43:37;;;;;;;16.93;9.90;;;;;1.40;98207.00;;;;8280147;28;20697;-73
2022/01/12 10:47:40;;;;;;;22.20;11.87;;;;;1.40;98210.00;;;;8280161;28;20680;-72
2022/01/12 10:51:55;;;;;;;23.03;9.73;;;;;1.60;98229.00;;;;8278648;28;20235;-70
2022/01/12 10:56:03;;;;;;;20.30;10.87;;;;;1.50;98235.00;;;;8276316;28;20313;-71
2022/01/12 11:00:18;;;;;;;18.80;9.70;;;;;1.50;98229.00;;;;8272753;28;20245;-70
2022/01/12 11:04:22;;;;;;;22.70;10.93;;;;;1.30;98243.00;;;;8272483;28;20310;-70
2022/01/12 11:08:28;;;;;;;20.37;10.63;;;;;0.80;98239.00;;;;8275723;28;20230;-71
2022/01/12 11:12:31;;;;;;;20.07;10.70;;;;;0.40;98243.00;;;;8280524;28;20326;-70
2022/01/12 11:16:34;;;;;;;24.10;11.23;;;;;0.40;98246.00;;;;8273359;28;20257;-70
2022/01/12 11:20:43;;;;;;;20.27;10.77;;;;;0.60;98226.00;;;;8275165;28;20229;-71
2022/01/12 11:24:47;;;;;;;19.43;9.97;;;;;1.00;98218.00;;;;8272247;28;20246;-70
2022/01/12 11:28:52;;;;;;;19.07;9.20;;;;;1.40;98209.00;;;;8269496;28;20229;-69
2022/01/12 11:32:57;;;;;;;19.77;9.73;;;;;1.60;98231.00;;;;8267750;28;20226;-70
2022/01/12 11:37:10;;;;;;;15.97;9.10;;;;;1.50;98232.00;;;;8265124;28;20234;-70
2022/01/12 11:41:17;;;;;;;14.20;8.63;;;;;1.10;98230.00;;;;8264401;28;20306;-72
2022/01/12 11:45:21;;;;;;;17.33;8.50;;;;;1.30;98221.00;;;;8255764;28;20257;-69
2022/01/12 11:49:27;;;;;;;14.83;8.03;;;;;1.70;98228.00;;;;8262921;28;20256;-70
2022/01/12 11:53:31;;;;;;;14.03;7.63;;;;;1.90;98220.00;;;;8263347;28;20261;-70
2022/01/12 11:57:38;;;;;;;14.30;7.83;;;;;1.80;98219.00;;;;8271667;28;20695;-71
2022/01/12 12:01:45;;;;;;;13.73;8.30;;;;;2.10;98194.00;;;;8265139;28;20217;-70
2022/01/12 12:05:55;;;;;;;16.23;8.50;;;;;2.20;98188.00;;;;8275012;28;20233;-69
2022/01/12 12:09:59;;;;;;;13.27;7.87;;;;;2.30;98172.00;;;;8275289;28;20339;-69
2022/01/12 12:14:09;;;;;;;15.30;8.37;;;;;2.30;98170.00;;;;8271299;28;20228;-69
2022/01/12 12:18:13;;;;;;;13.33;8.07;;;;;2.40;98176.00;;;;8271294;28;20738;-70
2022/01/12 12:22:19;;;;;;;14.00;7.97;;;;;2.50;98177.00;;;;8268280;28;20230;-70
2022/01/12 12:26:24;;;;;;;14.53;8.87;;;;;2.70;98166.00;;;;8269928;28;20324;-70
2022/01/12 12:30:32;;;;;;;14.70;8.30;;;;;2.90;98162.00;;;;8274559;28;20218;-71
2022/01/12 12:34:36;;;;;;;14.70;8.00;;;;;3.20;98166.00;;;;8312411;28;20797;-72
2022/01/12 12:38:39;;;;;;;16.50;8.23;;;;;3.10;98156.00;;;;8312381;28;21271;-72
2022/01/12 12:42:43;;;;;;;12.77;7.57;;;;;2.90;98151.00;;;;8321734;28;20334;-71
2022/01/12 12:46:49;;;;;;;13.43;7.93;;;;;2.80;98145.00;;;;8311198;28;20274;-71
2022/01/12 12:50:59;;;;;;;16.83;9.20;;;;;2.80;98143.00;;;;8317251;28;20759;-71
2022/01/12 12:55:06;;;;;;;15.73;9.40;;;;;2.70;98141.00;;;;8289398;28;20249;-71
2022/01/12 12:59:09;;;;;;;19.37;9.80;;;;;2.60;98137.00;;;;8292723;28;20252;-70
2022/01/12 13:03:15;;;;;;;13.87;8.93;;;;;2.50;98119.00;;;;8281830;28;20313;-69
2022/01/12 13:07:19;;;;;;;15.97;9.13;;;;;2.40;98118.00;;;;8283886;28;20224;-71
2022/01/12 13:11:28;;;;;;;16.67;9.67;;;;;2.30;98119.00;;;;8278010;28;20250;-76
2022/01/12 13:15:33;;;;;;;16.87;9.20;;;;;2.30;98134.00;;;;8279853;28;20688;-74
2022/01/12 13:23:58;;;;;;;16.13;8.63;;;;;2.10;98143.00;;;;8253865;28;20254;-74
2022/01/12 13:28:02;;;;;;;18.10;8.70;;;;;2.00;98149.00;;;;8281633;28;20696;-76
2022/01/12 13:32:11;;;;;;;16.63;8.60;;;;;1.70;98158.00;;;;8276668;28;21016;-74
2022/01/12 13:36:18;;;;;;;16.13;9.00;;;;;1.60;98160.00;;;;8295465;28;20647;-73
2022/01/12 13:40:21;;;;;;;17.43;9.90;;;;;1.50;98150.00;;;;8318555;28;21095;-73
2022/01/12 13:44:24;;;;;;;19.80;9.43;;;;;1.30;98152.00;;;;8293578;28;20251;-73
2022/01/12 13:48:31;;;;;;;15.30;8.80;;;;;1.10;98146.00;;;;8281581;28;20224;-73
2022/01/12 13:52:37;;;;;;;18.67;9.73;;;;;1.00;98156.00;;;;8273370;28;20259;-73
2022/01/12 13:56:43;;;;;;;18.33;9.57;;;;;1.00;98157.00;;;;8278108;28;20307;-73
2022/01/12 14:00:46;;;;;;;17.17;9.37;;;;;1.00;98161.00;;;;8276040;28;20482;-73
2022/01/12 14:05:04;;;;;;;20.93;9.07;;;;;1.00;98166.00;;;;8283874;28;20256;-73
2022/01/12 14:09:22;;;;;;;16.33;9.00;;;;;1.10;98169.00;;;;8307544;28;20694;-73
2022/01/12 14:13:30;;;;;;;15.47;8.73;;;;;1.10;98160.00;;;;8309515;28;20261;-74
2022/01/12 14:17:40;;;;;;;16.63;8.87;;;;;1.00;98156.00;;;;8302690;28;20348;-73
2022/01/12 14:21:55;;;;;;;15.33;8.87;;;;;0.90;98169.00;;;;8307945;28;20313;-73
2022/01/12 14:25:59;;;;;;;16.13;9.03;;;;;0.90;98177.00;;;;8281966;28;20708;-76
2022/01/12 14:30:03;;;;;;;17.63;9.23;;;;;0.80;98164.00;;;;8284673;28;20268;-73
2022/01/12 14:34:07;;;;;;;17.27;9.03;;;;;0.70;98164.00;;;;8303629;28;20264;-73
2022/01/12 14:38:10;;;;;;;17.37;8.90;;;;;0.70;98168.00;;;;8311011;28;20268;-73
2022/01/12 14:42:15;;;;;;;15.70;8.47;;;;;0.70;98161.00;;;;8309041;28;20240;-73
2022/01/12 14:46:18;;;;;;;19.87;9.27;;;;;0.90;98177.00;;;;8277533;28;20312;-73
2022/01/12 14:50:22;;;;;;;19.27;10.17;;;;;1.00;98188.00;;;;8286645;28;20281;-72
2022/01/12 14:54:25;;;;;;;19.77;10.90;;;;;1.00;98202.00;;;;8289550;28;20429;-78
2022/01/12 14:58:31;;;;;;;24.40;13.23;;;;;1.40;98199.00;;;;8283032;28;20246;-77
2022/01/12 15:02:35;;;;;;;59.23;35.40;;;;;1.50;98204.00;;;;8282712;28;20258;-75
2022/01/12 15:06:39;;;;;;;24.87;14.53;;;;;1.50;98203.00;;;;8281091;28;20218;-75
2022/01/12 15:10:43;;;;;;;25.80;11.93;;;;;1.40;98202.00;;;;8278160;28;20253;-76
2022/01/12 15:14:57;;;;;;;20.17;11.30;;;;;1.40;98201.00;;;;8274495;28;20269;-77
2022/01/12 15:19:00;;;;;;;25.67;11.67;;;;;1.40;98203.00;;;;8286550;28;20258;-78
2022/01/12 15:23:03;;;;;;;17.00;9.43;;;;;1.30;98197.00;;;;8308500;28;20308;-76
2022/01/12 15:27:07;;;;;;;31.53;16.80;;;;;1.20;98191.00;;;;8285140;28;20261;-76
2022/01/12 15:31:11;;;;;;;35.67;19.90;;;;;1.20;98196.00;;;;8275644;28;20350;-75
2022/01/12 15:35:16;;;;;;;34.30;21.00;;;;;1.20;98187.00;;;;8274596;28;20583;-85
2022/01/12 15:39:19;;;;;;;29.60;17.47;;;;;1.10;98186.00;;;;8278145;28;20281;-77
2022/01/12 15:43:23;;;;;;;19.17;11.63;;;;;1.00;98198.00;;;;8276279;28;20254;-73
2022/01/12 15:47:29;;;;;;;489.07;244.60;;;;;0.90;98199.00;;;;8268349;28;20225;-75
2022/01/12 15:51:32;;;;;;;73.40;31.07;;;;;0.80;98202.00;;;;8290963;28;20237;-73
2022/01/12 15:55:35;;;;;;;333.97;106.80;;;;;0.60;98196.00;;;;8300555;28;20230;-73
2022/01/12 15:59:41;;;;;;;60.23;23.70;;;;;0.40;98187.00;;;;8271646;28;21022;-74
2022/01/12 16:03:46;;;;;;;27.40;13.57;;;;;0.30;98194.00;;;;8272747;28;20231;-74
2022/01/12 16:07:49;;;;;;;21.60;10.97;;;;;0.20;98195.00;;;;8274268;28;20264;-74
2022/01/12 16:11:53;;;;;;;21.43;11.00;;;;;0.20;98204.00;;;;8278505;28;20732;-70
2022/01/12 16:16:20;;;;;;;24.00;11.23;;;;;0.20;98192.00;;;;8276896;28;20237;-74
2022/01/12 16:20:27;;;;;;;21.77;10.73;;;;;0.20;98176.00;;;;8275959;28;20307;-74
2022/01/12 16:24:30;;;;;;;22.70;11.13;;;;;0.30;98184.00;;;;8268638;28;20241;-72
2022/01/12 16:28:34;;;;;;;22.20;11.47;;;;;0.40;98176.00;;;;8280693;28;20234;-76
2022/01/12 16:32:37;;;;;;;25.20;11.33;;;;;0.40;98193.00;;;;8283904;28;20238;-77
2022/01/12 16:36:44;;;;;;;29.93;11.90;;;;;0.50;98183.00;;;;8280580;28;20658;-76
2022/01/12 16:40:49;;;;;;;20.50;10.53;;;;;0.40;98196.00;;;;8273434;28;20235;-70
2022/01/12 16:44:52;;;;;;;20.70;10.93;;;;;0.40;98195.00;;;;8271605;28;20280;-72
2022/01/12 16:48:56;;;;;;;23.60;10.77;;;;;0.40;98186.00;;;;8261392;28;20337;-75
2022/01/12 16:53:21;;;;;;;24.33;11.50;;;;;0.40;98191.00;;;;8270101;28;20670;-71
2022/01/12 16:57:24;;;;;;;26.03;11.47;;;;;0.40;98201.00;;;;8274890;28;20229;-70
2022/01/12 17:01:27;;;;;;;24.33;12.03;;;;;0.40;98215.00;;;;8271369;28;20875;-70
2022/01/12 17:05:32;;;;;;;22.10;11.20;;;;;0.50;98227.00;;;;8269432;28;20222;-71
2022/01/12 17:09:36;;;;;;;22.40;10.33;;;;;0.40;98235.00;;;;8265768;28;20727;-70
2022/01/12 17:13:40;;;;;;;25.43;11.03;;;;;0.30;98241.00;;;;8272167;28;20253;-71
2022/01/12 17:18:41;;;;;;;21.33;11.27;;;;;0.30;98230.00;;;;8283201;28;20317;-72
2022/01/12 17:22:44;;;;;;;20.87;10.70;;;;;0.40;98236.00;;;;8244333;28;20301;-71
2022/01/12 17:27:08;;;;;;;22.50;11.20;;;;;0.40;98241.00;;;;8279060;28;20253;-71
2022/01/12 17:31:11;;;;;;;22.50;10.83;;;;;0.50;98238.00;;;;8303937;28;20221;-69
2022/01/12 17:35:14;;;;;;;19.73;10.87;;;;;0.60;98233.00;;;;8314970;28;20225;-69
2022/01/12 17:39:22;;;;;;;21.67;12.20;;;;;0.60;98235.00;;;;8297757;28;20264;-70
2022/01/12 17:43:27;;;;;;;22.07;11.30;;;;;0.70;98240.00;;;;8276452;28;20984;-71
2022/01/12 17:47:31;;;;;;;20.03;10.13;;;;;0.80;98258.00;;;;8273403;28;20226;-72
2022/01/12 17:51:34;;;;;;;22.53;10.13;;;;;0.80;98269.00;;;;8274058;28;20320;-71
2022/01/12 17:55:37;;;;;;;21.60;11.20;;;;;0.90;98262.00;;;;8279209;28;20953;-72
2022/01/12 17:59:42;;;;;;;23.60;11.73;;;;;0.80;98268.00;;;;8273467;28;20724;-72
2022/01/12 18:03:46;;;;;;;19.37;10.40;;;;;0.90;98261.00;;;;8277705;28;20241;-69
2022/01/12 18:07:50;;;;;;;70.63;38.90;;;;;0.90;98254.00;;;;8279926;28;20260;-70
2022/01/12 18:11:54;;;;;;;115.30;48.23;;;;;0.90;98267.00;;;;8273731;28;20233;-71
2022/01/12 18:16:06;;;;;;;42.37;19.10;;;;;1.00;98255.00;;;;8265446;28;20541;-69
2022/01/12 18:20:31;;;;;;;39.60;22.07;;;;;1.00;98265.00;;;;8266063;28;20274;-69
2022/01/12 18:24:35;;;;;;;27.30;14.33;;;;;1.00;98273.00;;;;8265155;28;20261;-69
2022/01/12 18:29:10;;;;;;;27.77;14.97;;;;;1.00;98273.00;;;;8266221;28;20233;-69
2022/01/12 18:33:48;;;;;;;24.80;11.93;;;;;1.00;98268.00;;;;8265346;28;20242;-69
2022/01/12 18:38:21;;;;;;;24.77;12.00;;;;;0.90;98288.00;;;;8264818;28;20239;-68
2022/01/12 18:42:59;;;;;;;24.87;11.97;;;;;0.90;98278.00;;;;8265009;28;20258;-68
2022/01/12 18:47:35;;;;;;;27.47;13.13;;;;;1.00;98282.00;;;;8265115;28;20243;-68
2022/01/12 18:52:14;;;;;;;25.73;12.63;;;;;1.00;98283.00;;;;8265043;28;20227;-67
2022/01/12 18:56:19;;;;;;;27.53;13.57;;;;;1.10;98279.00;;;;8264632;28;20216;-68
2022/01/12 19:00:51;;;;;;;30.53;15.13;;;;;1.10;98285.00;;;;8265716;28;20234;-67
2022/01/12 19:05:29;;;;;;;29.63;14.33;;;;;1.10;98286.00;;;;8264984;28;20233;-67
2022/01/12 19:10:08;;;;;;;24.07;12.53;;;;;1.10;98300.00;;;;8264108;28;20235;-67
2022/01/12 19:14:49;;;;;;;26.93;12.97;;;;;1.10;98284.00;;;;8263799;28;20268;-67
2022/01/12 19:19:20;;;;;;;28.63;12.67;;;;;1.10;98285.00;;;;8264964;28;20552;-67
2022/01/12 19:23:23;;;;;;;24.23;12.67;;;;;1.10;98272.00;;;;8263671;28;20280;-67
2022/01/12 19:28:02;;;;;;;30.03;13.07;;;;;1.10;98263.00;;;;8264439;28;20611;-68
2022/01/12 19:32:36;;;;;;;30.77;13.93;;;;;1.00;98262.00;;;;8264606;28;20238;-68
2022/01/12 19:37:12;;;;;;;32.30;13.57;;;;;1.00;98262.00;;;;8263671;28;20250;-68
2022/01/12 19:41:49;;;;;;;28.27;14.03;;;;;0.90;98275.00;;;;8263455;28;20688;-68
2022/01/12 19:45:54;;;;;;;25.33;12.97;;;;;0.90;98280.00;;;;8264237;28;20265;-68
2022/01/12 19:50:30;;;;;;;27.47;13.40;;;;;0.80;98289.00;;;;8263815;28;20314;-68
2022/01/12 19:55:04;;;;;;;24.83;13.27;;;;;0.60;98297.00;;;;8263429;28;20499;-68
2022/01/12 19:59:43;;;;;;;25.97;12.50;;;;;0.40;98291.00;;;;8263231;28;20254;-68
2022/01/12 20:09:30;;;;;;;25.73;13.37;;;;;-0.20;98308.00;;;;8262675;28;20707;-68
2022/01/12 20:13:33;;;;;;;24.67;13.03;;;;;-0.60;98321.00;;;;8262823;28;20636;-68
2022/01/12 20:23:04;;;;;;;28.53;13.57;;;;;-1.00;98309.00;;;;8262922;28;20234;-68
2022/01/12 20:27:27;;;;;;;27.47;12.57;;;;;-1.40;98309.00;;;;8262382;28;20226;-68
2022/01/12 20:31:58;;;;;;;26.10;12.77;;;;;-1.70;98316.00;;;;8263156;28;20218;-68
2022/01/12 20:36:33;;;;;;;25.80;13.07;;;;;-2.00;98304.00;;;;8263126;28;20245;-67
2022/01/12 20:41:07;;;;;;;25.93;12.53;;;;;-2.20;98296.00;;;;8262147;28;20218;-67
2022/01/12 20:45:47;;;;;;;29.93;13.57;;;;;-2.40;98299.00;;;;8261779;28;20218;-67
2022/01/12 20:49:51;;;;;;;26.97;13.23;;;;;-2.50;98302.00;;;;8267397;28;20246;-67
2022/01/12 20:54:28;;;;;;;29.67;13.60;;;;;-2.40;98308.00;;;;8268485;28;20230;-67
2022/01/12 20:58:31;;;;;;;30.50;12.83;;;;;-2.30;98305.00;;;;8268551;28;20226;-67
2022/01/12 21:02:42;;;;;;;32.47;13.23;;;;;-2.10;98312.00;;;;8268167;28;20238;-67
2022/01/12 21:07:10;;;;;;;30.17;13.53;;;;;-1.80;98312.00;;;;8268307;28;20222;-68
2022/01/12 21:11:48;;;;;;;34.63;15.23;;;;;-1.60;98310.00;;;;8267809;28;20225;-68
2022/01/12 21:16:24;;;;;;;33.13;15.70;;;;;-1.30;98317.00;;;;8267683;28;20229;-68
2022/01/12 21:20:29;;;;;;;29.23;13.90;;;;;-1.10;98318.00;;;;8300125;28;20253;-69
2022/01/12 21:25:03;;;;;;;30.90;13.60;;;;;-1.00;98317.00;;;;8299684;28;20238;-68
2022/01/12 21:29:06;;;;;;;27.53;13.67;;;;;-0.80;98310.00;;;;8268231;28;20637;-69
2022/01/12 21:33:09;;;;;;;33.77;13.70;;;;;-0.60;98323.00;;;;8257946;28;20226;-69
2022/01/12 21:37:22;;;;;;;31.37;14.53;;;;;-0.40;98328.00;;;;8266520;28;20226;-69
2022/01/12 21:41:26;;;;;;;35.03;15.43;;;;;-0.30;98339.00;;;;8268133;28;20233;-68
2022/01/12 21:46:00;;;;;;;33.03;15.63;;;;;-0.20;98331.00;;;;8267572;28;20219;-69
2022/01/12 21:50:04;;;;;;;26.53;13.67;;;;;0.00;98342.00;;;;8267098;28;20223;-68